createdAt,value
2019-01-08T00:01:12.264Z,8.77
2019-01-08T00:03:41.173Z,8.77
2019-01-08T00:06:10.800Z,9.07
2019-01-08T00:18:11.429Z,7.60
2019-01-08T00:20:42.996Z,7.43
2019-01-08T00:23:12.408Z,6.17
2019-01-08T00:25:41.301Z,6.00
2019-01-08T00:28:10.201Z,7.97
2019-01-08T00:30:39.469Z,7.07
2019-01-08T00:33:08.420Z,7.50
2019-01-08T00:35:49.417Z,7.50
2019-01-08T00:38:18.693Z,7.00
2019-01-08T00:40:47.588Z,6.57
2019-01-08T00:43:16.800Z,6.70
2019-01-08T00:45:45.693Z,7.33
2019-01-08T00:48:14.975Z,6.60
2019-01-08T00:50:44.988Z,6.50
2019-01-08T00:53:13.889Z,6.80
2019-01-08T00:58:53.186Z,6.47
2019-01-08T01:01:22.078Z,7.40
2019-01-08T01:03:51.329Z,7.30
2019-01-08T01:06:20.202Z,6.47
2019-01-08T01:08:49.492Z,6.23
2019-01-08T01:11:18.363Z,6.33
2019-01-08T01:13:47.605Z,6.73
2019-01-08T01:16:16.455Z,6.23
2019-01-08T01:18:45.827Z,6.67
2019-01-08T01:21:15.055Z,5.67
2019-01-08T01:24:22.663Z,5.67
2019-01-08T01:26:51.896Z,6.20
2019-01-08T01:29:21.087Z,5.37
2019-01-08T01:31:50.394Z,6.67
2019-01-08T01:34:19.282Z,6.20
2019-01-08T01:36:48.217Z,4.93
2019-01-08T01:39:17.089Z,5.37
2019-01-08T01:41:45.998Z,5.90
2019-01-08T01:44:15.662Z,5.83
2019-01-08T01:46:44.901Z,6.57
2019-01-08T01:49:36.634Z,5.53
2019-01-08T01:52:05.995Z,6.57
2019-01-08T01:54:35.321Z,5.63
2019-01-08T01:57:04.603Z,5.73
2019-01-08T01:59:33.977Z,4.90
2019-01-08T02:02:53.817Z,5.00
2019-01-08T02:05:23.505Z,5.60
2019-01-08T02:08:11.409Z,5.50
2019-01-08T02:10:40.357Z,5.20
2019-01-08T02:13:10.025Z,5.10
2019-01-08T02:15:57.949Z,4.73
2019-01-08T02:18:26.825Z,5.23
2019-01-08T02:20:55.720Z,4.80
2019-01-08T02:23:24.995Z,3.57
2019-01-08T02:25:54.388Z,4.70
2019-01-08T02:28:23.443Z,5.37
2019-01-08T02:30:52.314Z,4.23
2019-01-08T02:33:21.228Z,4.50
2019-01-08T02:35:50.415Z,4.63
2019-01-08T02:38:19.649Z,4.73
2019-01-08T02:40:48.616Z,4.37
2019-01-08T02:46:40.075Z,3.80
2019-01-08T02:49:09.556Z,3.70
2019-01-08T02:51:38.493Z,3.23
2019-01-08T02:54:07.381Z,3.10
2019-01-08T02:56:36.422Z,3.20
2019-01-08T02:59:05.776Z,2.20
2019-01-08T03:01:34.704Z,2.00
2019-01-08T03:04:03.617Z,2.30
2019-01-08T03:09:42.536Z,2.30
2019-01-08T03:12:11.469Z,2.27
2019-01-08T03:14:41.194Z,1.70
2019-01-08T03:17:10.890Z,2.03
2019-01-08T03:19:39.801Z,1.50
2019-01-08T03:22:08.663Z,1.90
2019-01-08T03:27:48.232Z,1.77
2019-01-08T03:30:17.138Z,2.17
2019-01-08T03:33:04.190Z,1.77
2019-01-08T03:35:33.108Z,1.63
2019-01-08T03:38:01.996Z,1.30
2019-01-08T03:40:30.894Z,1.50
2019-01-08T03:42:59.779Z,1.00
2019-01-08T03:45:28.673Z,1.00
2019-01-08T03:47:57.556Z,1.07
2019-01-08T03:50:26.518Z,1.00
2019-01-08T03:52:55.429Z,1.10
2019-01-08T03:55:24.293Z,0.83
2019-01-08T03:57:53.158Z,0.90
2019-01-08T04:03:32.276Z,0.87
2019-01-08T04:06:01.176Z,0.73
2019-01-08T04:08:38.023Z,0.67
2019-01-08T04:11:06.963Z,0.80
2019-01-08T04:13:36.161Z,0.93
2019-01-08T04:16:05.028Z,0.70
2019-01-08T04:18:33.934Z,1.03
2019-01-08T04:21:02.826Z,0.90
2019-01-08T04:23:31.716Z,1.10
2019-01-08T04:26:01.080Z,0.80
2019-01-08T04:28:30.271Z,1.10
2019-01-08T04:30:59.164Z,0.73
2019-01-08T04:33:28.065Z,1.00
2019-01-08T04:35:57.473Z,0.80
2019-01-08T04:41:36.804Z,0.90
2019-01-08T04:44:05.728Z,1.10
2019-01-08T04:46:35.436Z,0.80
2019-01-08T04:49:04.736Z,0.80
2019-01-08T04:51:34.435Z,0.90
2019-01-08T04:54:39.854Z,1.03
2019-01-08T04:57:08.819Z,1.10
2019-01-08T04:59:37.678Z,0.90
2019-01-08T05:02:06.605Z,1.00
2019-01-08T05:04:35.861Z,0.87
2019-01-08T05:07:04.733Z,0.90
2019-01-08T05:09:33.642Z,0.60
2019-01-08T05:12:03.162Z,1.23
2019-01-08T05:14:32.174Z,1.17
2019-01-08T05:17:01.483Z,1.00
2019-01-08T05:19:30.401Z,1.00
2019-01-08T05:21:59.630Z,1.00
2019-01-08T05:24:29.341Z,1.30
2019-01-08T05:26:58.268Z,0.90
2019-01-08T05:29:27.168Z,1.20
2019-01-08T05:31:56.468Z,1.17
2019-01-08T05:34:25.403Z,0.90
2019-01-08T05:36:54.330Z,0.93
2019-01-08T05:39:24.045Z,0.90
2019-01-08T05:41:52.961Z,1.13
2019-01-08T05:44:28.027Z,0.90
2019-01-08T05:47:09.565Z,1.00
2019-01-08T05:53:25.320Z,0.87
2019-01-08T05:55:54.540Z,1.07
2019-01-08T05:58:23.876Z,0.93
2019-01-08T06:00:53.137Z,1.20
2019-01-08T06:03:22.773Z,1.90
2019-01-08T06:05:51.676Z,1.63
2019-01-08T06:08:20.536Z,1.80
2019-01-08T06:10:49.789Z,1.30
2019-01-08T06:13:22.055Z,1.30
2019-01-08T06:15:50.948Z,1.10
2019-01-08T06:18:19.831Z,0.97
2019-01-08T06:20:48.873Z,1.30
2019-01-08T06:23:18.065Z,1.37
2019-01-08T06:25:46.959Z,1.23
2019-01-08T06:28:16.590Z,1.47
2019-01-08T06:30:45.856Z,1.30
2019-01-08T06:33:15.090Z,0.80
2019-01-08T06:35:43.975Z,1.10
2019-01-08T06:38:12.836Z,1.20
2019-01-08T06:40:41.741Z,0.83
2019-01-08T06:43:11.030Z,1.20
2019-01-08T06:45:43.112Z,1.47
2019-01-08T06:48:11.985Z,1.50
2019-01-08T06:51:00.289Z,1.30
2019-01-08T06:53:29.217Z,1.63
2019-01-08T06:55:58.089Z,1.83
2019-01-08T06:58:26.975Z,2.20
2019-01-08T07:00:56.214Z,2.00
2019-01-08T07:03:25.100Z,1.83
2019-01-08T07:05:54.788Z,2.03
2019-01-08T07:08:24.003Z,2.10
2019-01-08T07:10:52.883Z,2.00
2019-01-08T07:13:27.825Z,2.00
2019-01-08T07:15:57.047Z,1.90
2019-01-08T07:18:25.972Z,2.90
2019-01-08T07:20:54.862Z,2.50
2019-01-08T07:23:23.805Z,2.27
2019-01-08T07:25:53.123Z,2.27
2019-01-08T07:28:21.992Z,3.20
2019-01-08T07:30:51.758Z,3.20
2019-01-08T07:33:20.998Z,3.50
2019-01-08T07:35:49.896Z,3.10
2019-01-08T07:38:44.107Z,3.00
2019-01-08T07:41:13.411Z,3.13
2019-01-08T07:43:42.297Z,2.97
2019-01-08T07:46:11.194Z,3.00
2019-01-08T07:48:40.131Z,3.20
2019-01-08T07:51:08.979Z,3.80
2019-01-08T07:53:37.944Z,3.57
2019-01-08T07:56:07.364Z,4.17
2019-01-08T07:58:36.661Z,4.00
2019-01-08T08:01:14.939Z,3.63
2019-01-08T08:03:44.131Z,3.33
2019-01-08T08:06:13.032Z,3.73
2019-01-08T08:08:44.004Z,4.33
2019-01-08T08:11:12.898Z,3.67
2019-01-08T08:13:42.057Z,3.70
2019-01-08T08:16:10.953Z,4.07
2019-01-08T08:18:42.319Z,4.20
2019-01-08T08:21:11.591Z,3.53
2019-01-08T08:23:40.886Z,3.70
2019-01-08T08:26:09.766Z,3.87
2019-01-08T08:28:38.974Z,2.97
2019-01-08T08:31:07.840Z,2.13
2019-01-08T08:33:37.403Z,1.97
2019-01-08T08:36:06.807Z,1.60
2019-01-08T08:38:35.671Z,2.13
2019-01-08T08:41:04.609Z,2.40
2019-01-08T08:43:33.472Z,2.23
2019-01-08T08:46:02.783Z,2.53
2019-01-08T08:48:32.052Z,2.60
2019-01-08T08:51:01.763Z,1.87
2019-01-08T08:53:36.915Z,1.70
2019-01-08T08:56:05.804Z,1.50
2019-01-08T08:58:35.087Z,1.43
2019-01-08T09:01:07.126Z,1.97
2019-01-08T09:03:35.233Z,1.30
2019-01-08T09:06:04.211Z,1.50
2019-01-08T09:08:34.221Z,1.50
2019-01-08T09:11:03.589Z,1.77
2019-01-08T09:13:32.827Z,2.07
2019-01-08T09:16:01.715Z,1.90
2019-01-08T09:18:49.174Z,1.80
2019-01-08T09:21:18.057Z,2.23
2019-01-08T09:23:47.230Z,2.33
2019-01-08T09:26:16.564Z,2.10
2019-01-08T09:28:45.425Z,1.90
2019-01-08T09:31:15.620Z,2.80
2019-01-08T09:33:44.822Z,2.67
2019-01-08T09:36:13.745Z,2.73
2019-01-08T09:38:48.886Z,2.40
2019-01-08T09:41:17.744Z,2.80
2019-01-08T09:43:46.954Z,2.57
2019-01-08T09:46:16.223Z,2.97
2019-01-08T09:48:45.096Z,2.90
2019-01-08T09:51:14.032Z,3.57
2019-01-08T09:53:42.975Z,2.73
2019-01-08T09:56:11.908Z,2.90
2019-01-08T09:58:40.775Z,2.97
2019-01-08T10:01:09.920Z,3.00
2019-01-08T10:03:39.112Z,2.70
2019-01-08T10:06:07.996Z,2.50
2019-01-08T10:08:37.296Z,2.83
2019-01-08T10:11:07.329Z,3.70
2019-01-08T10:13:36.368Z,2.80
2019-01-08T10:16:06.050Z,2.77
2019-01-08T10:18:35.721Z,3.40
2019-01-08T10:21:04.609Z,3.00
2019-01-08T10:26:44.732Z,2.77
2019-01-08T10:29:13.995Z,2.70
2019-01-08T10:31:43.307Z,2.63
2019-01-08T10:34:12.689Z,2.90
2019-01-08T10:36:41.745Z,3.10
2019-01-08T10:39:10.646Z,3.50
2019-01-08T10:41:39.616Z,3.20
2019-01-08T10:44:08.477Z,3.03
2019-01-08T10:46:38.172Z,3.63
2019-01-08T10:49:26.421Z,3.70
2019-01-08T10:51:55.341Z,3.20
2019-01-08T10:54:24.598Z,3.20
2019-01-08T10:56:53.492Z,3.40
2019-01-08T10:59:23.117Z,3.93
2019-01-08T11:01:52.211Z,3.50
2019-01-08T11:04:21.156Z,2.80
2019-01-08T11:06:50.006Z,2.60
2019-01-08T11:09:18.896Z,4.00
2019-01-08T11:11:47.747Z,2.83
2019-01-08T11:14:17.065Z,2.80
2019-01-08T11:17:01.196Z,2.80
2019-01-08T11:19:30.396Z,2.80
2019-01-08T11:21:59.298Z,2.97
2019-01-08T11:24:28.265Z,3.13
2019-01-08T11:26:57.170Z,2.70
2019-01-08T11:29:26.019Z,3.77
2019-01-08T11:31:54.919Z,3.57
2019-01-08T11:34:23.815Z,3.13
2019-01-08T11:36:52.689Z,3.27
2019-01-08T11:39:21.946Z,2.80
2019-01-08T11:41:50.850Z,3.10
2019-01-08T11:44:19.722Z,2.97
2019-01-08T11:46:48.619Z,2.50
2019-01-08T11:49:17.518Z,3.00
2019-01-08T11:51:46.803Z,2.60
2019-01-08T11:54:15.743Z,2.73
2019-01-08T11:56:44.584Z,2.37
2019-01-08T11:59:13.520Z,3.50
2019-01-08T12:01:42.391Z,2.43
2019-01-08T12:04:13.540Z,2.40
2019-01-08T12:06:42.489Z,2.10
2019-01-08T12:09:11.350Z,2.00
2019-01-08T12:12:09.718Z,2.27
2019-01-08T12:14:38.681Z,2.07
2019-01-08T12:17:08.060Z,2.23
2019-01-08T12:19:37.267Z,3.33
2019-01-08T12:22:06.172Z,2.00
2019-01-08T12:24:35.132Z,2.10
2019-01-08T12:27:04.033Z,2.43
2019-01-08T12:29:33.836Z,2.10
2019-01-08T12:32:06.406Z,2.00
2019-01-08T12:34:33.707Z,2.50
2019-01-08T12:37:17.202Z,2.63
2019-01-08T12:39:46.155Z,2.80
2019-01-08T12:42:47.275Z,2.20
2019-01-08T12:45:16.548Z,2.40
2019-01-08T12:47:45.439Z,2.37
2019-01-08T12:50:14.751Z,2.90
2019-01-08T12:52:44.519Z,2.10
2019-01-08T12:55:13.389Z,2.00
2019-01-08T12:57:42.268Z,2.30
2019-01-08T13:00:11.273Z,2.57
2019-01-08T13:02:40.648Z,3.70
2019-01-08T13:05:09.488Z,2.37
2019-01-08T13:07:39.122Z,2.20
2019-01-08T13:10:08.140Z,3.03
2019-01-08T13:12:37.620Z,2.73
2019-01-08T13:15:06.632Z,2.93
2019-01-08T13:17:35.909Z,2.50
2019-01-08T13:20:05.133Z,2.40
2019-01-08T13:23:07.591Z,2.77
2019-01-08T13:25:36.490Z,3.77
2019-01-08T13:28:05.381Z,5.97
2019-01-08T13:30:37.638Z,2.80
2019-01-08T13:33:06.667Z,5.67
2019-01-08T13:35:35.561Z,8.13
2019-01-08T13:38:04.894Z,4.17
2019-01-08T13:40:33.768Z,4.80
2019-01-08T13:43:02.857Z,4.23
2019-01-08T13:45:31.778Z,3.90
2019-01-08T13:48:00.777Z,3.93
2019-01-08T13:50:29.817Z,3.63
2019-01-08T13:52:58.630Z,4.20
2019-01-08T13:55:27.606Z,5.10
2019-01-08T13:57:57.180Z,4.13
2019-01-08T14:00:26.063Z,2.97
2019-01-08T14:02:54.962Z,2.60
2019-01-08T14:05:23.898Z,2.80
2019-01-08T14:07:52.806Z,2.80
2019-01-08T14:10:21.690Z,2.53
2019-01-08T14:12:51.613Z,3.07
2019-01-08T14:15:20.595Z,3.30
2019-01-08T14:17:49.483Z,4.47
2019-01-08T14:20:18.311Z,2.93
2019-01-08T14:22:47.379Z,2.53
2019-01-08T14:25:16.171Z,2.73
2019-01-08T14:27:45.410Z,2.77
2019-01-08T14:30:14.335Z,2.50
2019-01-08T14:32:43.587Z,2.67
2019-01-08T14:35:12.862Z,2.87
2019-01-08T14:37:41.719Z,2.60
2019-01-08T14:40:10.975Z,2.27
2019-01-08T14:42:40.297Z,2.63
2019-01-08T14:45:09.196Z,2.30
2019-01-08T14:47:38.051Z,2.57
2019-01-08T14:50:09.976Z,2.40
2019-01-08T14:52:38.887Z,2.37
2019-01-08T14:55:07.769Z,2.33
2019-01-08T14:57:37.024Z,2.20
2019-01-08T15:00:06.688Z,1.80
2019-01-08T15:03:01.768Z,1.90
2019-01-08T15:05:30.656Z,1.90
2019-01-08T15:08:00.212Z,2.20
2019-01-08T15:10:29.102Z,2.00
2019-01-08T15:12:58.348Z,2.90
2019-01-08T15:15:27.723Z,2.50
2019-01-08T15:17:57.074Z,3.07
2019-01-08T15:20:26.304Z,2.73
2019-01-08T15:22:55.735Z,2.83
2019-01-08T15:25:24.671Z,2.47
2019-01-08T15:27:53.629Z,3.10
2019-01-08T15:30:35.182Z,3.20
2019-01-08T15:33:04.070Z,3.10
2019-01-08T15:35:32.990Z,3.73
2019-01-08T15:38:02.323Z,2.90
2019-01-08T15:40:31.218Z,2.63
2019-01-08T15:43:01.477Z,3.80
2019-01-08T15:45:30.379Z,3.27
2019-01-08T15:47:59.772Z,3.23
2019-01-08T15:50:28.622Z,2.80
2019-01-08T15:52:57.479Z,2.67
2019-01-08T15:55:39.747Z,3.17
2019-01-08T15:58:09.049Z,2.77
2019-01-08T16:00:37.980Z,2.30
2019-01-08T16:03:07.635Z,2.87
2019-01-08T16:05:57.930Z,4.77
2019-01-08T16:08:26.797Z,2.50
2019-01-08T16:10:55.719Z,2.30
2019-01-08T16:13:24.642Z,3.13
2019-01-08T16:15:53.517Z,3.00
2019-01-08T16:18:22.484Z,3.00
2019-01-08T16:20:51.448Z,3.00
2019-01-08T16:23:29.685Z,2.60
2019-01-08T16:25:59.023Z,3.53
2019-01-08T16:28:27.983Z,2.37
2019-01-08T16:30:57.010Z,3.80
2019-01-08T16:33:27.886Z,2.30
2019-01-08T16:35:57.120Z,2.67
2019-01-08T16:38:25.981Z,2.63
2019-01-08T16:41:00.986Z,2.63
2019-01-08T16:43:29.865Z,2.27
2019-01-08T16:45:58.720Z,2.73
2019-01-08T16:48:27.616Z,2.27
2019-01-08T16:50:56.591Z,2.30
2019-01-08T16:53:25.518Z,3.10
2019-01-08T16:55:54.728Z,2.50
2019-01-08T16:58:23.710Z,2.47
2019-01-08T17:00:52.948Z,2.93
2019-01-08T17:03:26.796Z,2.70
2019-01-08T17:05:56.027Z,3.70
2019-01-08T17:08:25.306Z,2.70
2019-01-08T17:11:18.415Z,3.00
2019-01-08T17:13:47.308Z,3.00
2019-01-08T17:16:19.716Z,2.90
2019-01-08T17:18:49.017Z,2.70
2019-01-08T17:21:23.900Z,2.97
2019-01-08T17:23:52.811Z,2.60
2019-01-08T17:26:21.721Z,2.63
2019-01-08T17:28:56.667Z,2.53
2019-01-08T17:31:25.564Z,2.70
2019-01-08T17:33:54.458Z,2.30
2019-01-08T17:36:23.423Z,3.13
2019-01-08T17:39:00.264Z,3.57
2019-01-08T17:41:29.620Z,3.37
2019-01-08T17:43:58.536Z,3.57
2019-01-08T17:46:33.364Z,2.90
2019-01-08T17:49:02.666Z,3.50
2019-01-08T17:51:31.943Z,3.17
2019-01-08T17:54:01.216Z,3.80
2019-01-08T17:56:30.091Z,3.40
2019-01-08T17:59:09.717Z,3.50
2019-01-08T18:01:41.139Z,3.40
2019-01-08T18:04:10.020Z,3.10
2019-01-08T18:06:39.424Z,2.30
2019-01-08T18:09:08.674Z,3.40
2019-01-08T18:11:37.910Z,2.90
2019-01-08T18:14:06.841Z,3.20
2019-01-08T18:16:35.774Z,4.93
2019-01-08T18:19:04.646Z,5.00
2019-01-08T18:21:33.549Z,3.97
2019-01-08T18:24:02.437Z,4.70
2019-01-08T18:26:31.380Z,3.63
2019-01-08T18:29:00.259Z,3.17
2019-01-08T18:31:29.560Z,2.93
2019-01-08T18:34:16.729Z,3.50
2019-01-08T18:36:46.010Z,3.47
2019-01-08T18:39:14.847Z,3.73
2019-01-08T18:41:43.703Z,3.60
2019-01-08T18:44:12.578Z,3.00
2019-01-08T18:46:41.464Z,2.77
2019-01-08T18:49:10.421Z,4.00
2019-01-08T18:51:39.388Z,4.90
2019-01-08T18:54:08.316Z,3.07
2019-01-08T18:56:43.295Z,2.90
2019-01-08T18:59:52.148Z,4.30
2019-01-08T19:02:21.060Z,3.90
2019-01-08T19:04:49.934Z,3.40
2019-01-08T19:07:19.319Z,3.23
2019-01-08T19:09:58.027Z,3.07
2019-01-08T19:12:42.447Z,3.30
2019-01-08T19:15:11.335Z,3.10
2019-01-08T19:17:40.251Z,3.17
2019-01-08T19:20:09.324Z,3.40
2019-01-08T19:22:57.275Z,2.77
2019-01-08T19:25:26.130Z,2.80
2019-01-08T19:27:55.086Z,3.10
2019-01-08T19:30:24.314Z,2.37
2019-01-08T19:32:53.287Z,3.30
2019-01-08T19:35:22.211Z,3.30
2019-01-08T19:37:51.099Z,3.23
2019-01-08T19:43:30.071Z,2.60
2019-01-08T19:45:59.013Z,3.10
2019-01-08T19:48:27.951Z,2.87
2019-01-08T19:50:56.867Z,3.10
2019-01-08T19:53:25.756Z,2.67
2019-01-08T19:55:54.636Z,3.23
2019-01-08T19:58:26.155Z,3.23
2019-01-08T20:00:55.121Z,1.93
2019-01-08T20:03:24.502Z,2.60
2019-01-08T20:05:53.423Z,2.57
2019-01-08T20:08:22.316Z,5.33
2019-01-08T20:10:51.936Z,3.70
2019-01-08T20:13:20.814Z,3.70
2019-01-08T20:15:49.724Z,3.67
2019-01-08T20:18:18.660Z,3.40
2019-01-08T20:20:47.593Z,3.30
2019-01-08T20:23:23.564Z,3.80
2019-01-08T20:25:52.898Z,3.40
2019-01-08T20:28:22.157Z,2.73
2019-01-08T20:30:55.500Z,3.03
2019-01-08T20:33:30.390Z,2.90
2019-01-08T20:35:59.288Z,2.90
2019-01-08T20:38:28.175Z,3.87
2019-01-08T20:40:57.070Z,4.77
2019-01-08T20:43:26.152Z,3.73
2019-01-08T20:45:55.066Z,3.00
2019-01-08T20:48:36.172Z,2.80
2019-01-08T20:51:05.156Z,3.50
2019-01-08T20:53:34.982Z,2.87
2019-01-08T20:56:11.878Z,2.97
2019-01-08T20:58:40.828Z,4.50
2019-01-08T21:01:09.765Z,2.93
2019-01-08T21:03:38.969Z,2.30
2019-01-08T21:06:24.393Z,3.10
2019-01-08T21:08:53.290Z,2.23
2019-01-08T21:11:22.577Z,2.47
2019-01-08T21:13:51.487Z,2.50
2019-01-08T21:16:20.455Z,2.10
2019-01-08T21:18:49.400Z,2.07
2019-01-08T21:21:18.312Z,2.43
2019-01-08T21:23:54.506Z,2.40
2019-01-08T21:26:23.982Z,2.57
2019-01-08T21:28:52.886Z,4.50
2019-01-08T21:31:22.771Z,5.43
2019-01-08T21:33:52.130Z,2.10
2019-01-08T21:36:21.008Z,2.50
2019-01-08T21:38:53.036Z,2.23
2019-01-08T21:41:22.364Z,2.43
2019-01-08T21:43:51.309Z,2.37
2019-01-08T21:46:20.195Z,1.97
2019-01-08T21:48:49.192Z,2.50
2019-01-08T21:51:18.588Z,2.40
2019-01-08T21:53:47.821Z,2.03
2019-01-08T21:56:16.815Z,2.40
2019-01-08T21:58:45.711Z,2.13
2019-01-08T22:01:14.648Z,2.43
2019-01-08T22:03:43.961Z,2.23
2019-01-08T22:06:12.858Z,2.57
2019-01-08T22:08:41.759Z,2.30
2019-01-08T22:11:10.663Z,2.43
2019-01-08T22:13:39.559Z,2.20
2019-01-08T22:16:11.616Z,2.10
2019-01-08T22:18:40.504Z,1.80
2019-01-08T22:21:10.221Z,2.33
2019-01-08T22:23:39.113Z,2.50
2019-01-08T22:26:08.055Z,2.17
2019-01-08T22:28:36.935Z,2.20
2019-01-08T22:31:05.842Z,2.10
2019-01-08T22:33:34.805Z,1.87
2019-01-08T22:36:03.703Z,2.17
2019-01-08T22:38:33.000Z,2.20
2019-01-08T22:47:35.486Z,2.27
2019-01-08T22:50:04.948Z,1.97
2019-01-08T22:52:34.956Z,2.83
2019-01-08T22:55:04.708Z,1.80
2019-01-08T22:57:33.642Z,1.60
2019-01-08T23:00:02.558Z,1.90
2019-01-08T23:02:31.452Z,2.17
2019-01-08T23:05:00.398Z,2.37
2019-01-08T23:07:29.689Z,2.00
2019-01-08T23:10:04.000Z,2.37
2019-01-08T23:12:32.999Z,2.40
2019-01-08T23:15:02.323Z,1.90
2019-01-08T23:17:31.587Z,2.30
2019-01-08T23:20:00.519Z,2.60
2019-01-08T23:22:29.409Z,2.70
2019-01-08T23:24:58.724Z,2.50
2019-01-08T23:27:28.041Z,2.50
2019-01-08T23:29:56.977Z,2.60
2019-01-08T23:32:26.269Z,2.43
2019-01-08T23:34:55.593Z,2.50
2019-01-08T23:37:24.541Z,2.33
2019-01-08T23:39:53.853Z,1.97
2019-01-08T23:42:23.147Z,2.00
2019-01-08T23:44:52.034Z,2.53
2019-01-08T23:47:20.932Z,2.70
2019-01-08T23:49:49.818Z,2.07
2019-01-08T23:52:24.346Z,2.10
2019-01-08T23:55:14.198Z,2.30
2019-01-08T23:57:43.923Z,1.90
